sensor_id;sensor_type;location;lat;lon;timestamp;temperature;humidity
10566;DHT22;5331;48.148;16.326;2023-02-28T00:01:05;0.80;1.00
10566;DHT22;5331;48.148;16.326;2023-02-28T00:03:32;0.80;1.00
10566;DHT22;5331;48.148;16.326;2023-02-28T00:06:01;0.70;1.00
10566;DHT22;5331;48.148;16.326;2023-02-28T00:08:29;0.70;1.00
10566;DHT22;5331;48.148;16.326;2023-02-28T00:10:56;0.60;1.00
10566;DHT22;5331;48.148;16.326;2023-02-28T00:13:23;0.70;1.00
10566;DHT22;5331;48.148;16.326;2023-02-28T00:15:59;0.60;1.00
10566;DHT22;5331;48.148;16.326;2023-02-28T00:18:26;0.60;1.00
10566;DHT22;5331;48.148;16.326;2023-02-28T00:20:58;0.60;1.00
10566;DHT22;5331;48.148;16.326;2023-02-28T00:23:25;0.60;1.00
10566;DHT22;5331;48.148;16.326;2023-02-28T00:25:54;0.50;1.00
10566;DHT22;5331;48.148;16.326;2023-02-28T00:28:21;0.50;1.00
10566;DHT22;5331;48.148;16.326;2023-02-28T00:30:48;0.50;1.00
10566;DHT22;5331;48.148;16.326;2023-02-28T00:33:15;0.60;1.00
10566;DHT22;5331;48.148;16.326;2023-02-28T00:35:42;0.60;1.00
10566;DHT22;5331;48.148;16.326;2023-02-28T00:38:11;0.60;1.00
10566;DHT22;5331;48.148;16.326;2023-02-28T00:40:38;0.60;1.00
10566;DHT22;5331;48.148;16.326;2023-02-28T00:43:07;0.50;1.00
10566;DHT22;5331;48.148;16.326;2023-02-28T00:45:33;0.50;1.00
10566;DHT22;5331;48.148;16.326;2023-02-28T00:48:00;0.50;1.00
10566;DHT22;5331;48.148;16.326;2023-02-28T00:50:27;0.60;1.00
10566;DHT22;5331;48.148;16.326;2023-02-28T00:52:54;0.50;1.00
10566;DHT22;5331;48.148;16.326;2023-02-28T00:55:21;0.50;1.00
10566;DHT22;5331;48.148;16.326;2023-02-28T00:57:48;0.50;1.00
10566;DHT22;5331;48.148;16.326;2023-02-28T01:00:17;0.50;1.00
10566;DHT22;5331;48.148;16.326;2023-02-28T01:02:44;0.40;1.00
10566;DHT22;5331;48.148;16.326;2023-02-28T01:05:11;0.40;1.00
10566;DHT22;5331;48.148;16.326;2023-02-28T01:07:38;0.40;1.00
10566;DHT22;5331;48.148;16.326;2023-02-28T01:10:05;0.40;1.00
10566;DHT22;5331;48.148;16.326;2023-02-28T01:12:32;0.40;1.00
10566;DHT22;5331;48.148;16.326;2023-02-28T01:14:59;0.40;1.00
10566;DHT22;5331;48.148;16.326;2023-02-28T01:17:27;0.40;1.00
10566;DHT22;5331;48.148;16.326;2023-02-28T01:19:55;0.40;1.00
10566;DHT22;5331;48.148;16.326;2023-02-28T01:22:22;0.30;1.00
10566;DHT22;5331;48.148;16.326;2023-02-28T01:24:48;0.40;1.00
10566;DHT22;5331;48.148;16.326;2023-02-28T01:27:15;0.40;1.00
10566;DHT22;5331;48.148;16.326;2023-02-28T01:29:42;0.40;1.00
10566;DHT22;5331;48.148;16.326;2023-02-28T01:32:09;0.30;1.00
10566;DHT22;5331;48.148;16.326;2023-02-28T01:34:37;0.40;1.00
10566;DHT22;5331;48.148;16.326;2023-02-28T01:37:04;0.40;1.00
10566;DHT22;5331;48.148;16.326;2023-02-28T01:39:31;0.40;1.00
10566;DHT22;5331;48.148;16.326;2023-02-28T01:41:58;0.40;1.00
10566;DHT22;5331;48.148;16.326;2023-02-28T01:45:15;0.40;1.00
10566;DHT22;5331;48.148;16.326;2023-02-28T01:47:44;0.40;1.00
10566;DHT22;5331;48.148;16.326;2023-02-28T01:50:16;0.40;1.00
10566;DHT22;5331;48.148;16.326;2023-02-28T01:52:45;0.40;1.00
10566;DHT22;5331;48.148;16.326;2023-02-28T01:55:15;0.40;1.00
10566;DHT22;5331;48.148;16.326;2023-02-28T01:57:46;0.40;1.00
10566;DHT22;5331;48.148;16.326;2023-02-28T02:00:17;0.40;1.00
10566;DHT22;5331;48.148;16.326;2023-02-28T02:02:46;0.40;1.00
10566;DHT22;5331;48.148;16.326;2023-02-28T02:05:18;0.40;1.00
10566;DHT22;5331;48.148;16.326;2023-02-28T02:07:48;0.40;1.00
10566;DHT22;5331;48.148;16.326;2023-02-28T02:10:18;0.40;1.00
10566;DHT22;5331;48.148;16.326;2023-02-28T02:13:10;0.40;1.00
10566;DHT22;5331;48.148;16.326;2023-02-28T02:15:42;0.50;1.00
10566;DHT22;5331;48.148;16.326;2023-02-28T02:18:18;0.50;1.00
10566;DHT22;5331;48.148;16.326;2023-02-28T02:24:34;0.40;1.00
10566;DHT22;5331;48.148;16.326;2023-02-28T02:27:45;0.40;1.00
10566;DHT22;5331;48.148;16.326;2023-02-28T02:30:39;0.40;1.00
10566;DHT22;5331;48.148;16.326;2023-02-28T02:33:27;0.40;1.00
10566;DHT22;5331;48.148;16.326;2023-02-28T02:36:01;0.30;1.00
10566;DHT22;5331;48.148;16.326;2023-02-28T02:38:33;0.30;1.00
10566;DHT22;5331;48.148;16.326;2023-02-28T02:41:08;0.30;1.00
10566;DHT22;5331;48.148;16.326;2023-02-28T02:43:40;0.30;1.00
10566;DHT22;5331;48.148;16.326;2023-02-28T02:46:15;0.30;1.00
10566;DHT22;5331;48.148;16.326;2023-02-28T02:48:45;0.20;1.00
10566;DHT22;5331;48.148;16.326;2023-02-28T02:51:16;0.20;1.00
10566;DHT22;5331;48.148;16.326;2023-02-28T02:53:47;0.20;1.00
10566;DHT22;5331;48.148;16.326;2023-02-28T02:56:17;0.30;1.00
10566;DHT22;5331;48.148;16.326;2023-02-28T02:58:47;0.30;1.00
10566;DHT22;5331;48.148;16.326;2023-02-28T03:01:16;0.20;1.00
10566;DHT22;5331;48.148;16.326;2023-02-28T03:03:54;0.20;1.00
10566;DHT22;5331;48.148;16.326;2023-02-28T03:06:23;0.20;1.00
10566;DHT22;5331;48.148;16.326;2023-02-28T03:08:50;0.20;1.00
10566;DHT22;5331;48.148;16.326;2023-02-28T03:11:17;0.10;1.00
10566;DHT22;5331;48.148;16.326;2023-02-28T03:14:03;0.10;1.00
10566;DHT22;5331;48.148;16.326;2023-02-28T03:16:40;0.10;1.00
10566;DHT22;5331;48.148;16.326;2023-02-28T03:19:31;0.00;1.00
10566;DHT22;5331;48.148;16.326;2023-02-28T03:22:16;0.00;1.00
10566;DHT22;5331;48.148;16.326;2023-02-28T03:24:50;0.00;1.00
10566;DHT22;5331;48.148;16.326;2023-02-28T03:27:24;0.00;1.00
10566;DHT22;5331;48.148;16.326;2023-02-28T03:29:58;-0.10;1.00
10566;DHT22;5331;48.148;16.326;2023-02-28T03:32:29;-0.10;1.00
10566;DHT22;5331;48.148;16.326;2023-02-28T03:35:04;-0.10;1.00
10566;DHT22;5331;48.148;16.326;2023-02-28T03:37:36;-0.20;1.00
10566;DHT22;5331;48.148;16.326;2023-02-28T03:40:08;-0.20;1.00
10566;DHT22;5331;48.148;16.326;2023-02-28T03:42:39;-0.20;1.00
10566;DHT22;5331;48.148;16.326;2023-02-28T03:45:12;-0.20;1.00
10566;DHT22;5331;48.148;16.326;2023-02-28T03:47:44;-0.30;1.00
10566;DHT22;5331;48.148;16.326;2023-02-28T03:50:16;-0.30;1.00
10566;DHT22;5331;48.148;16.326;2023-02-28T03:52:48;-0.30;1.00
10566;DHT22;5331;48.148;16.326;2023-02-28T03:55:17;-0.30;1.00
10566;DHT22;5331;48.148;16.326;2023-02-28T03:57:54;-0.30;1.00
10566;DHT22;5331;48.148;16.326;2023-02-28T04:00:27;-0.30;1.00
10566;DHT22;5331;48.148;16.326;2023-02-28T04:02:55;-0.30;1.00
10566;DHT22;5331;48.148;16.326;2023-02-28T04:05:22;-0.30;1.00
10566;DHT22;5331;48.148;16.326;2023-02-28T04:07:51;-0.30;1.00
10566;DHT22;5331;48.148;16.326;2023-02-28T04:10:18;-0.20;1.00
10566;DHT22;5331;48.148;16.326;2023-02-28T04:12:45;-0.30;1.00
10566;DHT22;5331;48.148;16.326;2023-02-28T04:15:12;-0.30;1.00
10566;DHT22;5331;48.148;16.326;2023-02-28T04:17:39;-0.30;1.00
10566;DHT22;5331;48.148;16.326;2023-02-28T04:20:07;-0.20;1.00
10566;DHT22;5331;48.148;16.326;2023-02-28T04:22:36;-0.20;1.00
10566;DHT22;5331;48.148;16.326;2023-02-28T04:25:06;-0.20;1.00
10566;DHT22;5331;48.148;16.326;2023-02-28T04:27:33;-0.20;1.00
10566;DHT22;5331;48.148;16.326;2023-02-28T04:30:00;-0.20;1.00
10566;DHT22;5331;48.148;16.326;2023-02-28T04:32:27;-0.20;1.00
10566;DHT22;5331;48.148;16.326;2023-02-28T04:34:54;-0.20;1.00
10566;DHT22;5331;48.148;16.326;2023-02-28T04:37:21;-0.20;1.00
10566;DHT22;5331;48.148;16.326;2023-02-28T04:39:53;-0.20;1.00
10566;DHT22;5331;48.148;16.326;2023-02-28T04:42:21;-0.30;1.00
10566;DHT22;5331;48.148;16.326;2023-02-28T04:44:49;-0.30;1.00
10566;DHT22;5331;48.148;16.326;2023-02-28T04:47:16;-0.30;1.00
10566;DHT22;5331;48.148;16.326;2023-02-28T04:49:43;-0.30;1.00
10566;DHT22;5331;48.148;16.326;2023-02-28T04:52:10;-0.30;1.00
10566;DHT22;5331;48.148;16.326;2023-02-28T04:54:38;-0.30;1.00
10566;DHT22;5331;48.148;16.326;2023-02-28T04:57:05;-0.30;1.00
10566;DHT22;5331;48.148;16.326;2023-02-28T04:59:33;-0.40;1.00
10566;DHT22;5331;48.148;16.326;2023-02-28T05:02:00;-0.40;1.00
10566;DHT22;5331;48.148;16.326;2023-02-28T05:04:32;-0.40;1.00
10566;DHT22;5331;48.148;16.326;2023-02-28T05:06:59;-0.40;1.00
10566;DHT22;5331;48.148;16.326;2023-02-28T05:09:26;-0.40;1.00
10566;DHT22;5331;48.148;16.326;2023-02-28T05:11:53;-0.40;1.00
10566;DHT22;5331;48.148;16.326;2023-02-28T05:14:20;-0.40;1.00
10566;DHT22;5331;48.148;16.326;2023-02-28T05:16:49;-0.40;1.00
10566;DHT22;5331;48.148;16.326;2023-02-28T05:19:15;-0.40;1.00
10566;DHT22;5331;48.148;16.326;2023-02-28T05:21:50;-0.50;1.00
10566;DHT22;5331;48.148;16.326;2023-02-28T05:24:17;-0.50;1.00
10566;DHT22;5331;48.148;16.326;2023-02-28T05:26:49;-0.50;1.00
10566;DHT22;5331;48.148;16.326;2023-02-28T05:29:16;-0.50;1.00
10566;DHT22;5331;48.148;16.326;2023-02-28T05:31:43;-0.60;1.00
10566;DHT22;5331;48.148;16.326;2023-02-28T05:34:11;-0.60;1.00
10566;DHT22;5331;48.148;16.326;2023-02-28T05:36:41;-0.60;1.00
10566;DHT22;5331;48.148;16.326;2023-02-28T05:39:08;-0.60;1.00
10566;DHT22;5331;48.148;16.326;2023-02-28T05:41:39;-0.60;1.00
10566;DHT22;5331;48.148;16.326;2023-02-28T05:44:06;-0.60;1.00
10566;DHT22;5331;48.148;16.326;2023-02-28T05:46:33;-0.60;1.00
10566;DHT22;5331;48.148;16.326;2023-02-28T05:49:00;-0.50;1.00
10566;DHT22;5331;48.148;16.326;2023-02-28T05:51:29;-0.50;1.00
10566;DHT22;5331;48.148;16.326;2023-02-28T05:53:59;-0.60;1.00
10566;DHT22;5331;48.148;16.326;2023-02-28T05:56:26;-0.50;1.00
10566;DHT22;5331;48.148;16.326;2023-02-28T05:58:53;-0.50;1.00
10566;DHT22;5331;48.148;16.326;2023-02-28T06:01:23;-0.50;1.00
10566;DHT22;5331;48.148;16.326;2023-02-28T06:03:51;-0.50;1.00
10566;DHT22;5331;48.148;16.326;2023-02-28T06:06:18;-0.40;1.00
10566;DHT22;5331;48.148;16.326;2023-02-28T06:08:46;-0.50;1.00
10566;DHT22;5331;48.148;16.326;2023-02-28T06:11:13;-0.40;1.00
10566;DHT22;5331;48.148;16.326;2023-02-28T06:13:40;-0.40;1.00
10566;DHT22;5331;48.148;16.326;2023-02-28T06:16:09;-0.40;1.00
10566;DHT22;5331;48.148;16.326;2023-02-28T06:18:36;-0.40;1.00
10566;DHT22;5331;48.148;16.326;2023-02-28T06:21:04;-0.40;1.00
10566;DHT22;5331;48.148;16.326;2023-02-28T06:23:31;-0.30;1.00
10566;DHT22;5331;48.148;16.326;2023-02-28T06:25:59;-0.30;1.00
10566;DHT22;5331;48.148;16.326;2023-02-28T06:28:26;-0.30;1.00
10566;DHT22;5331;48.148;16.326;2023-02-28T06:30:53;-0.20;1.00
10566;DHT22;5331;48.148;16.326;2023-02-28T06:33:21;-0.20;1.00
10566;DHT22;5331;48.148;16.326;2023-02-28T06:35:49;-0.20;1.00
10566;DHT22;5331;48.148;16.326;2023-02-28T06:38:16;-0.20;1.00
10566;DHT22;5331;48.148;16.326;2023-02-28T06:40:43;-0.10;1.00
10566;DHT22;5331;48.148;16.326;2023-02-28T06:43:12;-0.10;1.00
10566;DHT22;5331;48.148;16.326;2023-02-28T06:45:42;0.00;1.00
10566;DHT22;5331;48.148;16.326;2023-02-28T06:48:09;0.00;1.00
10566;DHT22;5331;48.148;16.326;2023-02-28T06:50:37;0.10;1.00
10566;DHT22;5331;48.148;16.326;2023-02-28T06:53:03;0.10;1.00
10566;DHT22;5331;48.148;16.326;2023-02-28T06:55:30;0.10;1.00
10566;DHT22;5331;48.148;16.326;2023-02-28T06:57:57;0.10;1.00
10566;DHT22;5331;48.148;16.326;2023-02-28T07:00:26;0.10;1.00
10566;DHT22;5331;48.148;16.326;2023-02-28T07:02:53;0.10;1.00
10566;DHT22;5331;48.148;16.326;2023-02-28T07:05:21;0.20;1.00
10566;DHT22;5331;48.148;16.326;2023-02-28T07:07:48;0.20;1.00
10566;DHT22;5331;48.148;16.326;2023-02-28T07:10:14;0.30;1.00
10566;DHT22;5331;48.148;16.326;2023-02-28T07:12:42;0.30;1.00
10566;DHT22;5331;48.148;16.326;2023-02-28T07:15:10;0.30;1.00
10566;DHT22;5331;48.148;16.326;2023-02-28T07:17:38;0.40;1.00
10566;DHT22;5331;48.148;16.326;2023-02-28T07:20:06;0.50;1.00
10566;DHT22;5331;48.148;16.326;2023-02-28T07:22:33;0.50;1.00
10566;DHT22;5331;48.148;16.326;2023-02-28T07:25:00;0.70;1.00
10566;DHT22;5331;48.148;16.326;2023-02-28T07:27:27;0.80;1.00
10566;DHT22;5331;48.148;16.326;2023-02-28T07:29:54;0.90;1.00
10566;DHT22;5331;48.148;16.326;2023-02-28T07:32:21;0.80;1.00
10566;DHT22;5331;48.148;16.326;2023-02-28T07:34:50;0.80;1.00
10566;DHT22;5331;48.148;16.326;2023-02-28T07:37:17;0.80;1.00
10566;DHT22;5331;48.148;16.326;2023-02-28T07:39:44;0.70;1.00
10566;DHT22;5331;48.148;16.326;2023-02-28T07:42:11;0.70;1.00
10566;DHT22;5331;48.148;16.326;2023-02-28T07:44:38;0.80;1.00
10566;DHT22;5331;48.148;16.326;2023-02-28T07:47:07;0.80;1.00
10566;DHT22;5331;48.148;16.326;2023-02-28T07:49:35;0.80;1.00
10566;DHT22;5331;48.148;16.326;2023-02-28T07:52:03;1.00;1.00
10566;DHT22;5331;48.148;16.326;2023-02-28T07:54:30;1.00;1.00
10566;DHT22;5331;48.148;16.326;2023-02-28T07:56:57;1.00;1.00
10566;DHT22;5331;48.148;16.326;2023-02-28T07:59:24;1.20;1.00
10566;DHT22;5331;48.148;16.326;2023-02-28T08:01:51;1.30;1.00
10566;DHT22;5331;48.148;16.326;2023-02-28T08:04:18;1.40;1.00
10566;DHT22;5331;48.148;16.326;2023-02-28T08:06:46;1.50;1.00
10566;DHT22;5331;48.148;16.326;2023-02-28T08:09:14;1.80;1.00
10566;DHT22;5331;48.148;16.326;2023-02-28T08:11:41;1.80;1.00
10566;DHT22;5331;48.148;16.326;2023-02-28T08:14:08;1.80;1.00
10566;DHT22;5331;48.148;16.326;2023-02-28T08:16:35;2.00;1.00
10566;DHT22;5331;48.148;16.326;2023-02-28T08:19:02;2.10;1.00
10566;DHT22;5331;48.148;16.326;2023-02-28T08:21:29;2.30;1.00
10566;DHT22;5331;48.148;16.326;2023-02-28T08:23:56;2.30;1.00
10566;DHT22;5331;48.148;16.326;2023-02-28T08:26:24;2.40;1.00
10566;DHT22;5331;48.148;16.326;2023-02-28T08:28:51;2.60;1.00
10566;DHT22;5331;48.148;16.326;2023-02-28T08:31:19;2.60;1.00
10566;DHT22;5331;48.148;16.326;2023-02-28T08:33:46;2.70;1.00
10566;DHT22;5331;48.148;16.326;2023-02-28T08:36:14;3.10;1.00
10566;DHT22;5331;48.148;16.326;2023-02-28T08:38:41;3.30;1.00
10566;DHT22;5331;48.148;16.326;2023-02-28T08:41:11;3.70;1.00
10566;DHT22;5331;48.148;16.326;2023-02-28T08:43:40;4.20;1.00
10566;DHT22;5331;48.148;16.326;2023-02-28T08:46:07;4.60;1.00
10566;DHT22;5331;48.148;16.326;2023-02-28T08:48:35;5.00;1.00
10566;DHT22;5331;48.148;16.326;2023-02-28T08:51:06;4.90;1.00
10566;DHT22;5331;48.148;16.326;2023-02-28T08:53:34;4.90;1.00
10566;DHT22;5331;48.148;16.326;2023-02-28T08:56:04;4.80;1.00
10566;DHT22;5331;48.148;16.326;2023-02-28T08:58:32;5.00;1.00
10566;DHT22;5331;48.148;16.326;2023-02-28T09:01:07;4.90;1.00
10566;DHT22;5331;48.148;16.326;2023-02-28T09:03:35;5.00;1.00
10566;DHT22;5331;48.148;16.326;2023-02-28T09:06:02;5.30;1.00
10566;DHT22;5331;48.148;16.326;2023-02-28T09:08:30;5.30;1.00
10566;DHT22;5331;48.148;16.326;2023-02-28T09:10:57;5.40;1.00
10566;DHT22;5331;48.148;16.326;2023-02-28T09:13:25;5.70;1.00
10566;DHT22;5331;48.148;16.326;2023-02-28T09:15:52;5.90;1.00
10566;DHT22;5331;48.148;16.326;2023-02-28T09:18:20;5.80;1.00
10566;DHT22;5331;48.148;16.326;2023-02-28T09:20:47;5.40;1.00
10566;DHT22;5331;48.148;16.326;2023-02-28T09:23:16;5.20;1.00
10566;DHT22;5331;48.148;16.326;2023-02-28T09:25:47;4.90;1.00
10566;DHT22;5331;48.148;16.326;2023-02-28T09:28:14;4.80;1.00
10566;DHT22;5331;48.148;16.326;2023-02-28T09:30:43;4.40;1.00
10566;DHT22;5331;48.148;16.326;2023-02-28T09:33:10;4.40;1.00
10566;DHT22;5331;48.148;16.326;2023-02-28T09:35:38;4.60;1.00
10566;DHT22;5331;48.148;16.326;2023-02-28T09:38:06;4.90;1.00
10566;DHT22;5331;48.148;16.326;2023-02-28T09:40:36;5.10;1.00
10566;DHT22;5331;48.148;16.326;2023-02-28T09:43:04;4.80;1.00
10566;DHT22;5331;48.148;16.326;2023-02-28T09:45:34;4.40;1.00
10566;DHT22;5331;48.148;16.326;2023-02-28T09:48:04;4.20;1.00
10566;DHT22;5331;48.148;16.326;2023-02-28T09:50:36;3.90;1.00
10566;DHT22;5331;48.148;16.326;2023-02-28T09:53:13;3.80;1.00
10566;DHT22;5331;48.148;16.326;2023-02-28T09:55:44;3.90;1.00
10566;DHT22;5331;48.148;16.326;2023-02-28T09:58:17;4.10;1.00
10566;DHT22;5331;48.148;16.326;2023-02-28T10:00:50;4.30;1.00
10566;DHT22;5331;48.148;16.326;2023-02-28T10:03:26;4.40;1.00
10566;DHT22;5331;48.148;16.326;2023-02-28T10:06:02;4.40;1.00
10566;DHT22;5331;48.148;16.326;2023-02-28T10:08:36;4.80;1.00
10566;DHT22;5331;48.148;16.326;2023-02-28T10:11:07;5.00;1.00
10566;DHT22;5331;48.148;16.326;2023-02-28T10:13:40;5.30;1.00
10566;DHT22;5331;48.148;16.326;2023-02-28T10:16:13;5.40;1.00
10566;DHT22;5331;48.148;16.326;2023-02-28T10:18:45;5.90;1.00
10566;DHT22;5331;48.148;16.326;2023-02-28T10:21:21;6.20;1.00
10566;DHT22;5331;48.148;16.326;2023-02-28T10:24:02;6.40;1.00
10566;DHT22;5331;48.148;16.326;2023-02-28T10:26:31;6.30;1.00
10566;DHT22;5331;48.148;16.326;2023-02-28T10:28:59;6.10;1.00
10566;DHT22;5331;48.148;16.326;2023-02-28T10:31:26;6.30;1.00
10566;DHT22;5331;48.148;16.326;2023-02-28T10:33:53;6.30;1.00
10566;DHT22;5331;48.148;16.326;2023-02-28T10:36:21;6.10;1.00
10566;DHT22;5331;48.148;16.326;2023-02-28T10:38:49;6.50;1.00
10566;DHT22;5331;48.148;16.326;2023-02-28T10:41:27;6.60;1.00
10566;DHT22;5331;48.148;16.326;2023-02-28T10:44:14;6.90;1.00
10566;DHT22;5331;48.148;16.326;2023-02-28T10:46:41;6.90;1.00
10566;DHT22;5331;48.148;16.326;2023-02-28T10:49:14;6.80;1.00
10566;DHT22;5331;48.148;16.326;2023-02-28T10:51:43;7.00;1.00
10566;DHT22;5331;48.148;16.326;2023-02-28T10:54:28;7.20;1.00
10566;DHT22;5331;48.148;16.326;2023-02-28T10:57:15;7.60;1.00
10566;DHT22;5331;48.148;16.326;2023-02-28T10:59:43;7.60;1.00
10566;DHT22;5331;48.148;16.326;2023-02-28T11:02:30;7.10;1.00
10566;DHT22;5331;48.148;16.326;2023-02-28T11:04:57;7.30;1.00
10566;DHT22;5331;48.148;16.326;2023-02-28T11:07:26;7.00;1.00
10566;DHT22;5331;48.148;16.326;2023-02-28T11:09:54;6.50;1.00
10566;DHT22;5331;48.148;16.326;2023-02-28T11:12:26;6.30;1.00
10566;DHT22;5331;48.148;16.326;2023-02-28T11:14:56;6.30;1.00
10566;DHT22;5331;48.148;16.326;2023-02-28T11:17:24;6.40;1.00
10566;DHT22;5331;48.148;16.326;2023-02-28T11:19:54;6.50;1.00
10566;DHT22;5331;48.148;16.326;2023-02-28T11:22:25;6.80;1.00
10566;DHT22;5331;48.148;16.326;2023-02-28T11:24:56;7.00;1.00
10566;DHT22;5331;48.148;16.326;2023-02-28T11:27:47;7.40;1.00
10566;DHT22;5331;48.148;16.326;2023-02-28T11:30:33;7.40;1.00
10566;DHT22;5331;48.148;16.326;2023-02-28T11:33:01;7.00;1.00
10566;DHT22;5331;48.148;16.326;2023-02-28T11:35:42;6.90;1.00
10566;DHT22;5331;48.148;16.326;2023-02-28T11:38:12;7.00;1.00
10566;DHT22;5331;48.148;16.326;2023-02-28T11:40:45;6.90;1.00
10566;DHT22;5331;48.148;16.326;2023-02-28T11:43:27;6.80;1.00
10566;DHT22;5331;48.148;16.326;2023-02-28T11:46:06;6.70;1.00
10566;DHT22;5331;48.148;16.326;2023-02-28T11:48:44;6.40;1.00
10566;DHT22;5331;48.148;16.326;2023-02-28T11:51:21;6.20;1.00
10566;DHT22;5331;48.148;16.326;2023-02-28T11:54:24;6.10;1.00
10566;DHT22;5331;48.148;16.326;2023-02-28T11:56:57;6.00;1.00
10566;DHT22;5331;48.148;16.326;2023-02-28T11:59:51;5.90;1.00
10566;DHT22;5331;48.148;16.326;2023-02-28T12:02:26;5.70;1.00
10566;DHT22;5331;48.148;16.326;2023-02-28T12:05:16;5.70;1.00
10566;DHT22;5331;48.148;16.326;2023-02-28T12:07:53;5.70;1.00
10566;DHT22;5331;48.148;16.326;2023-02-28T12:10:26;5.90;1.00
10566;DHT22;5331;48.148;16.326;2023-02-28T12:13:03;6.00;1.00
10566;DHT22;5331;48.148;16.326;2023-02-28T12:15:47;6.30;1.00
10566;DHT22;5331;48.148;16.326;2023-02-28T12:18:24;6.60;1.00
10566;DHT22;5331;48.148;16.326;2023-02-28T12:20:56;6.80;1.00
10566;DHT22;5331;48.148;16.326;2023-02-28T12:23:41;6.60;1.00
10566;DHT22;5331;48.148;16.326;2023-02-28T12:26:15;6.60;1.00
10566;DHT22;5331;48.148;16.326;2023-02-28T12:28:50;6.60;1.00
10566;DHT22;5331;48.148;16.326;2023-02-28T12:31:23;6.50;1.00
10566;DHT22;5331;48.148;16.326;2023-02-28T12:33:53;6.20;1.00
10566;DHT22;5331;48.148;16.326;2023-02-28T12:36:22;6.20;1.00
10566;DHT22;5331;48.148;16.326;2023-02-28T12:38:55;6.20;1.00
10566;DHT22;5331;48.148;16.326;2023-02-28T12:41:40;6.20;1.00
10566;DHT22;5331;48.148;16.326;2023-02-28T12:44:11;6.10;1.00
10566;DHT22;5331;48.148;16.326;2023-02-28T12:46:43;6.00;1.00
10566;DHT22;5331;48.148;16.326;2023-02-28T12:49:15;6.30;1.00
10566;DHT22;5331;48.148;16.326;2023-02-28T12:51:44;6.60;1.00
10566;DHT22;5331;48.148;16.326;2023-02-28T12:54:22;6.90;1.00
10566;DHT22;5331;48.148;16.326;2023-02-28T12:56:57;7.20;1.00
10566;DHT22;5331;48.148;16.326;2023-02-28T12:59:29;7.10;1.00
10566;DHT22;5331;48.148;16.326;2023-02-28T13:02:18;7.20;1.00
10566;DHT22;5331;48.148;16.326;2023-02-28T13:05:21;7.10;1.00
10566;DHT22;5331;48.148;16.326;2023-02-28T13:10:56;7.20;1.00
10566;DHT22;5331;48.148;16.326;2023-02-28T13:13:25;6.80;1.00
10566;DHT22;5331;48.148;16.326;2023-02-28T13:16:01;6.50;1.00
10566;DHT22;5331;48.148;16.326;2023-02-28T13:18:36;6.20;1.00
10566;DHT22;5331;48.148;16.326;2023-02-28T13:21:06;6.20;1.00
10566;DHT22;5331;48.148;16.326;2023-02-28T13:29:31;5.90;1.00
10566;DHT22;5331;48.148;16.326;2023-02-28T13:35:35;5.70;1.00
10566;DHT22;5331;48.148;16.326;2023-02-28T13:38:25;5.60;1.00
10566;DHT22;5331;48.148;16.326;2023-02-28T13:44:00;5.80;1.00
10566;DHT22;5331;48.148;16.326;2023-02-28T13:46:28;5.90;1.00
10566;DHT22;5331;48.148;16.326;2023-02-28T13:48:55;5.90;1.00
10566;DHT22;5331;48.148;16.326;2023-02-28T13:51:46;6.00;1.00
10566;DHT22;5331;48.148;16.326;2023-02-28T13:54:28;6.00;1.00
10566;DHT22;5331;48.148;16.326;2023-02-28T13:57:24;6.10;1.00
10566;DHT22;5331;48.148;16.326;2023-02-28T14:00:02;6.00;1.00
10566;DHT22;5331;48.148;16.326;2023-02-28T14:02:47;6.10;1.00
10566;DHT22;5331;48.148;16.326;2023-02-28T14:05:19;6.00;1.00
10566;DHT22;5331;48.148;16.326;2023-02-28T14:07:53;5.90;1.00
10566;DHT22;5331;48.148;16.326;2023-02-28T14:10:27;5.70;1.00
10566;DHT22;5331;48.148;16.326;2023-02-28T14:13:10;5.60;1.00
10566;DHT22;5331;48.148;16.326;2023-02-28T14:15:45;5.50;1.00
10566;DHT22;5331;48.148;16.326;2023-02-28T14:18:24;5.40;1.00
10566;DHT22;5331;48.148;16.326;2023-02-28T14:21:01;5.50;1.00
10566;DHT22;5331;48.148;16.326;2023-02-28T14:24:07;5.50;1.00
10566;DHT22;5331;48.148;16.326;2023-02-28T14:26:56;5.50;1.00
10566;DHT22;5331;48.148;16.326;2023-02-28T14:32:25;5.70;1.00
10566;DHT22;5331;48.148;16.326;2023-02-28T14:34:58;5.80;1.00
10566;DHT22;5331;48.148;16.326;2023-02-28T14:37:32;5.80;1.00
10566;DHT22;5331;48.148;16.326;2023-02-28T14:40:01;5.70;1.00
10566;DHT22;5331;48.148;16.326;2023-02-28T14:42:32;5.70;1.00
10566;DHT22;5331;48.148;16.326;2023-02-28T14:44:59;5.60;1.00
10566;DHT22;5331;48.148;16.326;2023-02-28T14:47:28;5.50;1.00
10566;DHT22;5331;48.148;16.326;2023-02-28T14:49:57;5.50;1.00
10566;DHT22;5331;48.148;16.326;2023-02-28T14:52:26;5.40;1.00
10566;DHT22;5331;48.148;16.326;2023-02-28T14:54:56;5.40;1.00
10566;DHT22;5331;48.148;16.326;2023-02-28T14:57:27;5.30;1.00
10566;DHT22;5331;48.148;16.326;2023-02-28T14:59:59;5.30;1.00
10566;DHT22;5331;48.148;16.326;2023-02-28T15:02:29;5.30;1.00
10566;DHT22;5331;48.148;16.326;2023-02-28T15:04:58;5.20;1.00
10566;DHT22;5331;48.148;16.326;2023-02-28T15:07:26;5.20;1.00
10566;DHT22;5331;48.148;16.326;2023-02-28T15:10:11;5.20;1.00
10566;DHT22;5331;48.148;16.326;2023-02-28T15:12:41;5.30;1.00
10566;DHT22;5331;48.148;16.326;2023-02-28T15:15:14;5.30;1.00
10566;DHT22;5331;48.148;16.326;2023-02-28T15:17:45;5.30;1.00
10566;DHT22;5331;48.148;16.326;2023-02-28T15:20:14;5.40;1.00
10566;DHT22;5331;48.148;16.326;2023-02-28T15:22:42;5.40;1.00
10566;DHT22;5331;48.148;16.326;2023-02-28T15:25:10;5.50;1.00
10566;DHT22;5331;48.148;16.326;2023-02-28T15:27:44;5.50;1.00
10566;DHT22;5331;48.148;16.326;2023-02-28T15:30:16;5.50;1.00
10566;DHT22;5331;48.148;16.326;2023-02-28T15:32:44;5.40;1.00
10566;DHT22;5331;48.148;16.326;2023-02-28T15:35:19;5.40;1.00
10566;DHT22;5331;48.148;16.326;2023-02-28T15:37:48;5.40;1.00
10566;DHT22;5331;48.148;16.326;2023-02-28T15:40:29;5.40;1.00
10566;DHT22;5331;48.148;16.326;2023-02-28T15:43:04;5.40;1.00
10566;DHT22;5331;48.148;16.326;2023-02-28T15:45:36;5.40;1.00
10566;DHT22;5331;48.148;16.326;2023-02-28T15:48:14;5.40;1.00
10566;DHT22;5331;48.148;16.326;2023-02-28T15:50:43;5.50;1.00
10566;DHT22;5331;48.148;16.326;2023-02-28T15:53:15;5.50;1.00
10566;DHT22;5331;48.148;16.326;2023-02-28T15:55:42;5.40;1.00
10566;DHT22;5331;48.148;16.326;2023-02-28T15:58:12;5.40;1.00
10566;DHT22;5331;48.148;16.326;2023-02-28T16:00:43;5.40;1.00
10566;DHT22;5331;48.148;16.326;2023-02-28T16:03:25;5.40;1.00
10566;DHT22;5331;48.148;16.326;2023-02-28T16:06:09;5.40;1.00
10566;DHT22;5331;48.148;16.326;2023-02-28T16:08:47;5.40;1.00
10566;DHT22;5331;48.148;16.326;2023-02-28T16:11:17;5.30;1.00
10566;DHT22;5331;48.148;16.326;2023-02-28T16:13:46;5.30;1.00
10566;DHT22;5331;48.148;16.326;2023-02-28T16:16:16;5.30;1.00
10566;DHT22;5331;48.148;16.326;2023-02-28T16:18:43;5.20;1.00
10566;DHT22;5331;48.148;16.326;2023-02-28T16:21:10;5.10;1.00
10566;DHT22;5331;48.148;16.326;2023-02-28T16:23:37;5.10;1.00
10566;DHT22;5331;48.148;16.326;2023-02-28T16:26:05;5.10;1.00
10566;DHT22;5331;48.148;16.326;2023-02-28T16:28:35;5.00;1.00
10566;DHT22;5331;48.148;16.326;2023-02-28T16:31:06;4.90;1.00
10566;DHT22;5331;48.148;16.326;2023-02-28T16:33:34;4.90;1.00
10566;DHT22;5331;48.148;16.326;2023-02-28T16:36:01;4.80;1.00
10566;DHT22;5331;48.148;16.326;2023-02-28T16:38:28;4.90;1.00
10566;DHT22;5331;48.148;16.326;2023-02-28T16:40:57;4.80;1.00
10566;DHT22;5331;48.148;16.326;2023-02-28T16:43:26;4.80;1.00
10566;DHT22;5331;48.148;16.326;2023-02-28T16:45:54;4.80;1.00
10566;DHT22;5331;48.148;16.326;2023-02-28T16:48:24;4.70;1.00